Time;durP1;ratioP1;P1;durP2;ratioP2;P2;SDS_P1;SDS_P2;PMS_P1;PMS_P2;Temp;Humidity;BMP_temperature;BMP_pressure;BME280_temperature;BME280_humidity;BME280_pressure;Samples;Min_cycle;Max_cycle;Signal;HPM_P1;HPM_P2
2022/03/08 00:00:35;;;;;;;11.23;4.35;;;2.40;99.90;;;;;;4944935;29;20253;-87
2022/03/08 00:03:03;;;;;;;4.53;4.13;;;2.30;99.90;;;;;;4946451;29;20207;-87
2022/03/08 00:05:31;;;;;;;5.47;4.75;;;2.30;99.90;;;;;;4946414;29;20234;-87
2022/03/08 00:07:58;;;;;;;5.75;3.97;;;2.30;99.90;;;;;;4945963;29;20226;-86
2022/03/08 00:10:26;;;;;;;5.90;4.20;;;2.40;99.90;;;;;;4943459;29;20213;-87
2022/03/08 00:12:53;;;;;;;4.75;4.35;;;2.40;99.90;;;;;;4940976;29;20217;-86
2022/03/08 00:15:23;;;;;;;7.45;4.47;;;2.40;99.90;;;;;;4942057;29;20749;-86
2022/03/08 00:17:51;;;;;;;7.75;4.85;;;2.30;99.90;;;;;;4943568;29;20227;-87
2022/03/08 00:20:18;;;;;;;5.38;4.10;;;2.40;99.90;;;;;;4945176;29;20226;-84
2022/03/08 00:22:46;;;;;;;5.82;4.32;;;2.30;99.90;;;;;;4945205;29;20233;-84
2022/03/08 00:25:14;;;;;;;4.88;4.30;;;2.20;99.90;;;;;;4945440;29;20693;-87
2022/03/08 00:27:45;;;;;;;6.07;5.07;;;2.10;99.90;;;;;;4944877;29;20234;-84
2022/03/08 00:30:13;;;;;;;6.97;5.22;;;2.10;99.90;;;;;;4946328;29;20187;-85
2022/03/08 00:32:40;;;;;;;6.63;4.70;;;2.10;99.90;;;;;;4945009;29;20267;-86
2022/03/08 00:35:07;;;;;;;7.40;6.10;;;2.40;99.90;;;;;;4945583;29;20203;-85
2022/03/08 00:37:34;;;;;;;10.80;6.53;;;2.20;99.90;;;;;;4944104;29;20222;-86
2022/03/08 00:40:02;;;;;;;5.28;4.65;;;2.20;99.90;;;;;;4945322;29;20566;-85
2022/03/08 00:42:29;;;;;;;7.88;5.10;;;2.20;99.90;;;;;;4944819;29;20238;-85
2022/03/08 00:44:56;;;;;;;8.05;5.70;;;2.10;99.90;;;;;;4944866;29;20231;-85
2022/03/08 00:47:22;;;;;;;6.30;5.07;;;1.90;99.90;;;;;;4943739;29;20643;-85
2022/03/08 00:49:49;;;;;;;8.10;5.20;;;2.00;99.90;;;;;;4944139;29;20207;-85
2022/03/08 00:52:16;;;;;;;8.18;5.35;;;1.90;99.90;;;;;;4944488;29;20203;-85
2022/03/08 00:54:42;;;;;;;7.53;6.00;;;2.00;99.90;;;;;;4943946;29;20234;-85
2022/03/08 00:57:10;;;;;;;8.60;4.68;;;2.10;99.90;;;;;;4949269;29;20637;-86
2022/03/08 00:59:37;;;;;;;7.90;5.85;;;2.10;99.90;;;;;;4951078;29;20206;-86
2022/03/08 01:02:04;;;;;;;13.43;5.95;;;2.20;99.90;;;;;;4950334;29;20257;-86
2022/03/08 01:04:31;;;;;;;7.53;5.15;;;2.10;99.90;;;;;;4951591;29;20218;-85
2022/03/08 01:06:57;;;;;;;7.45;4.75;;;2.00;99.90;;;;;;4950523;29;20314;-85
2022/03/08 01:09:24;;;;;;;9.20;6.03;;;1.90;99.90;;;;;;4951236;29;20670;-86
2022/03/08 01:11:51;;;;;;;5.00;4.18;;;1.90;99.90;;;;;;4952537;29;20203;-84
2022/03/08 01:14:18;;;;;;;5.90;4.88;;;1.80;99.90;;;;;;4952823;29;20243;-85
2022/03/08 01:16:45;;;;;;;5.63;5.05;;;1.90;99.90;;;;;;4947400;29;20705;-85
2022/03/08 01:19:12;;;;;;;7.38;4.53;;;2.00;99.90;;;;;;4950150;29;20202;-85
2022/03/08 01:21:41;;;;;;;4.95;3.95;;;2.00;99.90;;;;;;4949670;29;20683;-85
2022/03/08 01:24:07;;;;;;;7.65;5.35;;;2.00;99.90;;;;;;4957748;29;20205;-85
2022/03/08 01:26:34;;;;;;;6.70;5.20;;;1.70;99.90;;;;;;4962642;29;20226;-85
2022/03/08 01:29:01;;;;;;;6.70;5.00;;;2.00;99.90;;;;;;4954813;29;20633;-85
2022/03/08 01:31:29;;;;;;;5.50;4.78;;;1.90;99.90;;;;;;4959549;29;20214;-84
2022/03/08 01:33:57;;;;;;;7.07;4.90;;;1.80;99.90;;;;;;4966563;28;20211;-82
2022/03/08 01:36:25;;;;;;;7.78;4.57;;;1.80;99.90;;;;;;4966202;28;20202;-84
2022/03/08 01:38:52;;;;;;;8.15;5.30;;;1.80;99.90;;;;;;4961227;29;20221;-84
2022/03/08 01:41:19;;;;;;;6.45;4.55;;;1.80;99.90;;;;;;4947334;29;20222;-84
2022/03/08 01:43:47;;;;;;;6.93;5.70;;;1.70;99.90;;;;;;4949196;29;20239;-84
2022/03/08 01:46:14;;;;;;;7.97;4.68;;;1.70;99.90;;;;;;4948496;29;20207;-85
2022/03/08 01:48:43;;;;;;;6.07;5.20;;;1.70;99.90;;;;;;4949192;29;20234;-84
2022/03/08 01:51:10;;;;;;;7.20;3.65;;;1.60;99.90;;;;;;4957652;29;20260;-84
2022/03/08 01:53:39;;;;;;;7.28;4.90;;;1.30;99.90;;;;;;4953276;29;20206;-86
2022/03/08 01:56:05;;;;;;;5.50;4.63;;;1.40;99.90;;;;;;4952580;29;20195;-85
2022/03/08 01:58:32;;;;;;;7.00;5.60;;;1.50;99.90;;;;;;4956167;29;20226;-85
2022/03/08 02:00:59;;;;;;;6.07;5.35;;;1.80;99.90;;;;;;4954329;29;20230;-84
2022/03/08 02:03:25;;;;;;;9.13;5.05;;;1.60;99.90;;;;;;4955714;29;20263;-85
2022/03/08 02:05:53;;;;;;;8.65;5.00;;;1.50;99.90;;;;;;4951980;29;20274;-85
2022/03/08 02:08:20;;;;;;;7.00;4.88;;;2.00;99.90;;;;;;4949147;29;20263;-86
2022/03/08 02:10:47;;;;;;;5.68;4.82;;;1.40;99.90;;;;;;4946913;29;20203;-86
2022/03/08 02:13:13;;;;;;;5.45;4.95;;;1.40;99.90;;;;;;4949434;29;20587;-86
2022/03/08 02:15:40;;;;;;;6.10;5.50;;;1.40;99.90;;;;;;4946567;29;20207;-85
2022/03/08 02:18:07;;;;;;;7.57;5.50;;;1.40;99.90;;;;;;4948491;29;20605;-85
2022/03/08 02:20:33;;;;;;;5.10;4.60;;;1.40;99.90;;;;;;4947630;29;20231;-86
2022/03/08 02:23:01;;;;;;;7.35;5.97;;;1.30;99.90;;;;;;4947963;29;20215;-84
2022/03/08 02:25:28;;;;;;;11.68;5.97;;;1.40;99.90;;;;;;4958934;28;20195;-84
2022/03/08 02:27:56;;;;;;;8.90;6.25;;;1.30;99.90;;;;;;4962847;28;20211;-84
2022/03/08 02:30:24;;;;;;;5.80;5.20;;;1.50;99.90;;;;;;4962984;28;20215;-84
2022/03/08 02:32:51;;;;;;;6.45;4.93;;;1.50;99.90;;;;;;4954225;29;20615;-85
2022/03/08 02:35:20;;;;;;;5.80;5.28;;;1.40;99.90;;;;;;4950811;29;20230;-85
2022/03/08 02:37:50;;;;;;;8.10;5.05;;;1.40;99.90;;;;;;4947304;29;20282;-85
2022/03/08 02:40:20;;;;;;;7.47;5.07;;;1.30;99.90;;;;;;4949088;29;20211;-85
2022/03/08 02:42:47;;;;;;;7.55;6.50;;;1.20;99.90;;;;;;4950819;29;20214;-86
2022/03/08 02:45:15;;;;;;;8.57;5.63;;;0.80;99.90;;;;;;4953672;29;20239;-86
2022/03/08 02:47:42;;;;;;;6.70;6.10;;;1.20;99.90;;;;;;4954123;29;20239;-86
2022/03/08 02:50:10;;;;;;;6.57;4.95;;;1.20;99.90;;;;;;4946628;29;20215;-86
2022/03/08 02:52:38;;;;;;;9.32;5.40;;;1.30;99.90;;;;;;4942049;29;20586;-84
2022/03/08 02:55:06;;;;;;;7.22;5.28;;;1.20;99.90;;;;;;4941482;29;20690;-84
2022/03/08 02:57:34;;;;;;;8.07;6.05;;;1.40;99.90;;;;;;4945919;29;20249;-86
2022/03/08 03:00:01;;;;;;;8.10;5.30;;;1.10;99.90;;;;;;4946815;29;20203;-85
2022/03/08 03:02:27;;;;;;;6.55;5.80;;;1.20;99.90;;;;;;4946759;29;20226;-84
2022/03/08 03:04:54;;;;;;;10.68;5.75;;;1.20;99.90;;;;;;4945944;29;20211;-85
2022/03/08 03:07:23;;;;;;;8.20;5.88;;;1.20;99.90;;;;;;4944364;29;20598;-85
2022/03/08 03:09:50;;;;;;;7.82;5.45;;;1.20;99.90;;;;;;4945688;29;20258;-87
2022/03/08 03:12:17;;;;;;;10.63;6.00;;;1.30;99.90;;;;;;4945246;29;20207;-86
2022/03/08 03:14:45;;;;;;;7.22;5.93;;;1.30;99.90;;;;;;4945285;29;20243;-85
2022/03/08 03:17:13;;;;;;;8.55;5.65;;;1.30;99.90;;;;;;4945632;29;20223;-85
2022/03/08 03:19:40;;;;;;;10.35;5.90;;;1.50;99.90;;;;;;4944633;29;20234;-86
2022/03/08 03:22:06;;;;;;;9.63;6.35;;;1.40;99.90;;;;;;4944378;29;20259;-85
2022/03/08 03:24:33;;;;;;;9.25;5.95;;;1.30;99.90;;;;;;4945351;29;20635;-86
2022/03/08 03:26:59;;;;;;;8.07;5.10;;;1.30;99.90;;;;;;4944134;29;20257;-84
2022/03/08 03:29:26;;;;;;;8.63;5.97;;;1.30;99.90;;;;;;4944487;29;20211;-84
2022/03/08 03:31:54;;;;;;;9.10;6.13;;;1.30;99.90;;;;;;4944162;29;20218;-85
2022/03/08 03:34:21;;;;;;;7.80;5.60;;;1.30;99.90;;;;;;4943925;29;20199;-85
2022/03/08 03:36:47;;;;;;;8.13;5.53;;;1.20;99.90;;;;;;4949978;29;20231;-85
2022/03/08 03:39:14;;;;;;;7.32;5.97;;;1.10;99.90;;;;;;4954563;29;20199;-85
2022/03/08 03:41:40;;;;;;;11.13;5.28;;;1.10;99.90;;;;;;4949712;29;20227;-85
2022/03/08 03:44:07;;;;;;;7.57;5.80;;;1.10;99.90;;;;;;4953495;28;20208;-82
2022/03/08 03:46:34;;;;;;;8.20;7.10;;;0.80;99.90;;;;;;4961211;28;20191;-83
2022/03/08 03:49:01;;;;;;;9.52;6.30;;;0.80;99.90;;;;;;4970097;23;20271;-83
2022/03/08 03:51:28;;;;;;;11.65;7.00;;;0.80;99.90;;;;;;4947020;29;20203;-83
2022/03/08 03:53:55;;;;;;;9.90;7.05;;;0.80;99.90;;;;;;4946500;29;20217;-83
2022/03/08 03:56:21;;;;;;;9.65;6.28;;;0.90;99.90;;;;;;4947682;29;20231;-83
2022/03/08 03:58:48;;;;;;;7.00;6.15;;;0.90;99.90;;;;;;4947696;29;20231;-85
2022/03/08 04:01:15;;;;;;;7.07;5.47;;;0.80;99.90;;;;;;4946715;29;20238;-84
2022/03/08 04:03:42;;;;;;;9.60;5.80;;;0.80;99.90;;;;;;4946379;29;20203;-84
2022/03/08 04:06:10;;;;;;;7.82;6.78;;;0.90;99.90;;;;;;4946387;29;20214;-83
2022/03/08 04:08:38;;;;;;;7.30;6.57;;;0.90;99.90;;;;;;4946447;29;20223;-86
2022/03/08 04:11:04;;;;;;;10.10;6.85;;;1.00;99.90;;;;;;4948076;29;20230;-85
2022/03/08 04:13:31;;;;;;;7.00;5.45;;;1.00;99.90;;;;;;4945907;29;20231;-84
2022/03/08 04:15:58;;;;;;;9.80;6.50;;;0.90;99.90;;;;;;4945336;29;20215;-84
2022/03/08 04:18:27;;;;;;;6.80;5.13;;;1.00;99.90;;;;;;4945594;29;20281;-85
2022/03/08 04:20:53;;;;;;;10.00;6.20;;;1.10;99.90;;;;;;4944315;29;20457;-84
2022/03/08 04:23:21;;;;;;;10.77;6.60;;;0.90;99.90;;;;;;4944316;29;20437;-82
2022/03/08 04:25:48;;;;;;;11.65;7.18;;;0.80;99.90;;;;;;4955046;29;20447;-83
2022/03/08 04:28:14;;;;;;;8.02;6.20;;;0.80;99.90;;;;;;4955231;29;20237;-84
2022/03/08 04:30:41;;;;;;;6.13;5.47;;;0.80;99.90;;;;;;4954854;29;20214;-84
2022/03/08 04:33:07;;;;;;;7.65;6.25;;;0.80;99.90;;;;;;4955289;29;20203;-85
2022/03/08 04:35:34;;;;;;;7.88;6.00;;;0.80;99.90;;;;;;4953748;29;20208;-84
2022/03/08 04:38:01;;;;;;;9.50;6.85;;;0.90;99.90;;;;;;4951614;29;20235;-84
2022/03/08 04:40:29;;;;;;;12.38;7.15;;;0.80;99.90;;;;;;4950728;29;20206;-84
2022/03/08 04:42:56;;;;;;;9.95;6.45;;;0.80;99.90;;;;;;4946019;29;20234;-85
2022/03/08 04:45:23;;;;;;;6.55;5.93;;;0.70;99.90;;;;;;4944987;29;20242;-83
2022/03/08 04:47:50;;;;;;;7.68;6.38;;;0.70;99.90;;;;;;4942894;29;20235;-84
2022/03/08 04:50:17;;;;;;;17.98;7.93;;;0.70;99.90;;;;;;4939189;29;20242;-84
2022/03/08 04:52:43;;;;;;;8.05;6.05;;;0.70;99.90;;;;;;4938370;29;20203;-84
2022/03/08 04:55:10;;;;;;;9.13;7.20;;;0.70;99.90;;;;;;4938368;29;20239;-83
2022/03/08 04:57:39;;;;;;;9.70;6.20;;;0.70;99.90;;;;;;4956402;28;20206;-82
2022/03/08 05:00:08;;;;;;;8.23;6.10;;;0.60;99.90;;;;;;4955541;28;20243;-84
2022/03/08 05:02:35;;;;;;;9.45;6.10;;;0.40;99.90;;;;;;4944968;29;20219;-83
2022/03/08 05:05:01;;;;;;;9.98;7.07;;;0.50;99.90;;;;;;4942594;29;20218;-83
2022/03/08 05:07:28;;;;;;;7.55;5.40;;;0.40;99.90;;;;;;4942478;29;20641;-84
2022/03/08 05:09:55;;;;;;;6.63;5.90;;;0.40;99.90;;;;;;4950329;29;20633;-83
2022/03/08 05:12:22;;;;;;;9.32;6.47;;;0.40;99.90;;;;;;4944301;29;20231;-84
2022/03/08 05:14:49;;;;;;;7.60;6.85;;;0.40;99.90;;;;;;4943472;29;20207;-83
2022/03/08 05:17:16;;;;;;;10.43;6.20;;;0.40;99.90;;;;;;4944249;29;20223;-82
2022/03/08 05:19:43;;;;;;;13.13;6.30;;;0.50;99.90;;;;;;4941973;29;20203;-84
2022/03/08 05:22:09;;;;;;;9.77;6.63;;;0.50;99.90;;;;;;4942883;29;20223;-84
2022/03/08 05:24:36;;;;;;;9.73;6.68;;;0.70;99.90;;;;;;4945264;29;20284;-84
2022/03/08 05:27:03;;;;;;;9.00;7.22;;;0.50;99.90;;;;;;4945680;29;20206;-84
2022/03/08 05:29:29;;;;;;;11.52;8.40;;;0.60;99.90;;;;;;4944570;29;20281;-83
2022/03/08 05:31:57;;;;;;;9.88;8.07;;;0.60;99.90;;;;;;4938194;29;20367;-83
2022/03/08 05:34:24;;;;;;;10.10;6.70;;;0.60;99.90;;;;;;4940033;29;20200;-84
2022/03/08 05:36:51;;;;;;;9.90;6.75;;;0.60;99.90;;;;;;4940635;29;20234;-84
2022/03/08 05:39:18;;;;;;;11.52;7.72;;;0.70;99.90;;;;;;4940997;29;20231;-84
2022/03/08 05:41:44;;;;;;;15.43;7.38;;;0.70;99.90;;;;;;4942895;29;20238;-84
2022/03/08 05:44:11;;;;;;;8.70;6.38;;;0.70;99.90;;;;;;4947748;29;20573;-84
2022/03/08 05:46:38;;;;;;;9.27;6.43;;;0.70;99.90;;;;;;4948045;29;20202;-85
2022/03/08 05:49:06;;;;;;;11.07;7.95;;;0.90;99.90;;;;;;4948146;29;20262;-84
2022/03/08 05:51:32;;;;;;;9.13;7.80;;;0.70;99.90;;;;;;4951550;29;20214;-84
2022/03/08 05:53:59;;;;;;;10.85;8.07;;;0.80;99.90;;;;;;4956702;29;20704;-83
2022/03/08 05:56:25;;;;;;;9.30;6.57;;;0.90;99.90;;;;;;4960587;29;20222;-83
2022/03/08 05:58:52;;;;;;;10.70;7.00;;;0.80;99.90;;;;;;4962404;29;20626;-83
2022/03/08 06:01:19;;;;;;;8.20;7.22;;;0.70;99.90;;;;;;4963026;28;20187;-82
2022/03/08 06:03:45;;;;;;;9.07;6.22;;;1.00;99.90;;;;;;4963633;28;20191;-81
2022/03/08 06:06:13;;;;;;;11.35;6.80;;;0.80;99.90;;;;;;4963576;28;20191;-82
2022/03/08 06:08:40;;;;;;;10.02;7.97;;;0.90;99.90;;;;;;4963418;28;20227;-81
2022/03/08 06:11:07;;;;;;;13.57;7.78;;;1.10;99.90;;;;;;4963600;28;20222;-82
2022/03/08 06:13:33;;;;;;;10.63;7.85;;;1.10;99.90;;;;;;4960892;28;20270;-82
2022/03/08 06:16:00;;;;;;;9.75;7.47;;;1.10;99.90;;;;;;4960441;29;20210;-83
2022/03/08 06:18:26;;;;;;;10.63;6.50;;;1.20;99.90;;;;;;4960990;29;20231;-82
2022/03/08 06:20:53;;;;;;;9.05;7.70;;;1.30;99.90;;;;;;4960771;29;20223;-83
2022/03/08 06:23:21;;;;;;;14.25;9.25;;;1.20;99.90;;;;;;4959030;29;20235;-83
2022/03/08 06:25:48;;;;;;;12.35;6.90;;;1.20;99.90;;;;;;4959622;29;20569;-83
2022/03/08 06:28:14;;;;;;;11.40;7.65;;;1.20;99.90;;;;;;4955684;29;20230;-83
2022/03/08 06:30:41;;;;;;;10.45;8.98;;;1.00;99.90;;;;;;4954456;29;20203;-84
2022/03/08 06:33:07;;;;;;;7.97;7.28;;;1.10;99.90;;;;;;4947708;29;20199;-83
2022/03/08 06:35:34;;;;;;;14.45;8.00;;;1.10;99.90;;;;;;4951497;29;20298;-84
2022/03/08 06:38:01;;;;;;;8.88;7.82;;;1.20;99.90;;;;;;4949768;29;20227;-82
2022/03/08 06:40:29;;;;;;;12.90;8.05;;;1.30;99.90;;;;;;4955711;28;20191;-82
2022/03/08 06:42:56;;;;;;;15.07;10.40;;;1.40;99.90;;;;;;4963246;28;20242;-81
2022/03/08 06:45:22;;;;;;;15.02;10.75;;;1.50;99.90;;;;;;4963220;28;20179;-80
2022/03/08 06:47:49;;;;;;;15.60;10.95;;;1.60;99.90;;;;;;4962861;28;20230;-80
2022/03/08 06:50:15;;;;;;;13.65;10.15;;;1.60;99.90;;;;;;4963046;28;20187;-81
2022/03/08 06:52:42;;;;;;;11.15;9.50;;;1.70;99.90;;;;;;4962707;28;20219;-82
2022/03/08 06:55:10;;;;;;;17.30;11.80;;;1.60;99.90;;;;;;4961259;29;20219;-83
2022/03/08 06:57:38;;;;;;;14.48;10.35;;;1.30;99.90;;;;;;4946571;29;20231;-85
2022/03/08 07:00:07;;;;;;;15.38;9.88;;;1.50;99.90;;;;;;4945658;29;20579;-84
2022/03/08 07:02:34;;;;;;;14.05;9.80;;;1.50;99.90;;;;;;4948133;29;20230;-84
2022/03/08 07:05:02;;;;;;;10.52;9.38;;;1.80;99.90;;;;;;4947018;29;20211;-84
2022/03/08 07:07:29;;;;;;;14.65;9.38;;;1.70;99.90;;;;;;4950047;29;20282;-84
2022/03/08 07:09:56;;;;;;;12.05;9.73;;;1.80;99.90;;;;;;4940873;29;20203;-84
2022/03/08 07:12:22;;;;;;;15.25;10.80;;;1.80;99.90;;;;;;4942343;29;20235;-84
2022/03/08 07:14:50;;;;;;;12.50;10.68;;;1.80;99.90;;;;;;4944247;29;20207;-84
2022/03/08 07:17:17;;;;;;;12.07;10.40;;;1.80;99.90;;;;;;4944046;29;20230;-84
2022/03/08 07:19:43;;;;;;;16.30;9.63;;;1.90;99.90;;;;;;4956224;28;20191;-84
2022/03/08 07:22:10;;;;;;;10.98;9.82;;;1.90;99.90;;;;;;4958261;29;20227;-84
2022/03/08 07:24:36;;;;;;;14.40;11.23;;;2.30;99.90;;;;;;4952606;29;20211;-85
2022/03/08 07:27:08;;;;;;;15.35;9.85;;;2.20;99.90;;;;;;4948917;29;20239;-84
2022/03/08 07:29:34;;;;;;;15.05;10.32;;;2.10;99.90;;;;;;4948862;29;20202;-86
2022/03/08 07:32:02;;;;;;;13.80;9.93;;;2.10;99.90;;;;;;4948712;29;20213;-85
2022/03/08 07:34:29;;;;;;;12.43;9.90;;;2.40;99.90;;;;;;4948423;29;20203;-85
2022/03/08 07:36:56;;;;;;;16.67;10.05;;;2.40;99.90;;;;;;4950011;29;20211;-85
2022/03/08 07:39:23;;;;;;;13.52;10.02;;;2.20;99.90;;;;;;4950273;29;20235;-84
2022/03/08 07:41:50;;;;;;;11.50;9.38;;;2.20;99.90;;;;;;4949773;29;20214;-85
2022/03/08 07:44:17;;;;;;;11.88;9.57;;;2.30;99.90;;;;;;4951447;29;20239;-85
2022/03/08 07:46:43;;;;;;;13.95;8.82;;;2.30;99.90;;;;;;4950597;29;20643;-85
2022/03/08 07:49:11;;;;;;;15.50;8.73;;;2.30;99.90;;;;;;4949287;29;20231;-85
2022/03/08 07:51:38;;;;;;;12.02;9.48;;;2.40;99.90;;;;;;4952206;29;20210;-85
2022/03/08 07:54:04;;;;;;;10.10;7.78;;;2.40;99.90;;;;;;4951059;29;20291;-85
2022/03/08 07:56:31;;;;;;;7.97;7.18;;;2.50;99.90;;;;;;4950653;29;20211;-84
2022/03/08 07:58:58;;;;;;;11.35;7.72;;;2.50;99.90;;;;;;4949676;29;20238;-85
2022/03/08 08:01:24;;;;;;;12.13;7.32;;;2.60;99.90;;;;;;4948661;29;20215;-85
2022/03/08 08:03:51;;;;;;;11.57;7.13;;;2.70;99.90;;;;;;4948401;29;20223;-85
2022/03/08 08:06:19;;;;;;;9.63;7.47;;;2.70;99.90;;;;;;4948721;29;20232;-84
2022/03/08 08:08:45;;;;;;;10.95;6.85;;;2.80;99.90;;;;;;4948690;29;20223;-85
2022/03/08 08:11:12;;;;;;;8.20;6.75;;;2.90;99.90;;;;;;4948814;29;20207;-85
2022/03/08 08:13:38;;;;;;;12.23;7.05;;;3.00;99.90;;;;;;4948715;29;20218;-85
2022/03/08 08:16:05;;;;;;;10.63;8.00;;;3.10;99.90;;;;;;4949399;29;20203;-85
2022/03/08 08:18:32;;;;;;;11.88;7.25;;;3.20;99.90;;;;;;4949542;29;20222;-85
2022/03/08 08:21:01;;;;;;;9.13;6.10;;;3.20;99.90;;;;;;4953665;29;20207;-84
2022/03/08 08:23:29;;;;;;;13.27;7.07;;;3.30;99.90;;;;;;4955591;29;20231;-84
2022/03/08 08:25:55;;;;;;;6.90;5.20;;;3.50;99.90;;;;;;4956761;29;20211;-83
2022/03/08 08:28:22;;;;;;;7.53;5.30;;;3.50;99.90;;;;;;4956753;29;20231;-83
2022/03/08 08:30:49;;;;;;;10.40;5.28;;;3.70;99.90;;;;;;4956342;29;20222;-84
2022/03/08 08:33:15;;;;;;;14.38;5.35;;;3.70;99.90;;;;;;4955945;29;20217;-84
2022/03/08 08:35:43;;;;;;;6.85;4.75;;;3.80;99.90;;;;;;4952296;29;20207;-84
2022/03/08 08:38:09;;;;;;;7.05;5.30;;;3.80;99.90;;;;;;4949580;29;20230;-84
2022/03/08 08:40:37;;;;;;;11.57;5.32;;;3.90;99.90;;;;;;4945778;29;20211;-84
2022/03/08 08:43:05;;;;;;;7.95;4.50;;;4.00;99.90;;;;;;4947231;29;20254;-84
2022/03/08 08:45:31;;;;;;;7.70;5.35;;;4.10;99.90;;;;;;4946266;29;20207;-83
2022/03/08 08:48:00;;;;;;;8.73;5.07;;;4.30;99.90;;;;;;4948058;29;20235;-84
2022/03/08 08:50:27;;;;;;;7.55;4.93;;;4.40;99.90;;;;;;4950443;29;20211;-83
2022/03/08 08:52:55;;;;;;;10.43;4.90;;;4.40;1.00;;;;;;4949132;29;20203;-83
2022/03/08 08:55:22;;;;;;;6.03;5.10;;;4.50;99.90;;;;;;4946737;29;20234;-85
2022/03/08 08:57:50;;;;;;;5.65;5.03;;;4.50;99.90;;;;;;4947570;29;20234;-85
2022/03/08 09:00:17;;;;;;;5.57;4.90;;;4.50;99.90;;;;;;4949703;29;20243;-86
2022/03/08 09:02:45;;;;;;;6.90;5.47;;;4.60;99.90;;;;;;4947556;29;20223;-85
2022/03/08 09:05:21;;;;;;;8.18;6.40;;;4.70;1.00;;;;;;4947825;29;20203;-85
2022/03/08 09:07:47;;;;;;;9.27;6.18;;;4.80;1.00;;;;;;4948378;29;20234;-85
2022/03/08 09:10:15;;;;;;;7.90;5.70;;;4.80;99.90;;;;;;4948317;29;20211;-85
2022/03/08 09:12:43;;;;;;;14.05;6.80;;;4.90;34.90;;;;;;4950095;29;20222;-85
2022/03/08 09:15:11;;;;;;;9.63;7.97;;;5.00;99.90;;;;;;4948238;29;20243;-85
2022/03/08 09:17:38;;;;;;;10.65;6.30;;;5.10;99.90;;;;;;4948868;29;20285;-86
2022/03/08 09:20:06;;;;;;;7.90;7.20;;;5.10;99.90;;;;;;4950551;29;20203;-84
2022/03/08 09:22:32;;;;;;;7.10;6.47;;;5.40;99.90;;;;;;4950222;29;20266;-85
2022/03/08 09:24:59;;;;;;;10.50;7.85;;;5.20;99.90;;;;;;4950604;29;20211;-85
2022/03/08 09:27:26;;;;;;;12.02;7.57;;;5.30;99.90;;;;;;4951069;29;20230;-86
2022/03/08 09:29:52;;;;;;;8.75;6.88;;;5.20;99.90;;;;;;4956076;28;20191;-84
2022/03/08 09:32:20;;;;;;;87.20;46.17;;;5.40;99.90;;;;;;4961878;28;20206;-85
2022/03/08 09:34:47;;;;;;;10.48;7.00;;;5.40;99.90;;;;;;4952364;29;20234;-86
2022/03/08 09:37:14;;;;;;;9.38;7.07;;;5.40;99.90;;;;;;4951826;29;20300;-86
2022/03/08 09:39:40;;;;;;;6.00;5.20;;;5.50;99.90;;;;;;4949668;29;20211;-85
2022/03/08 09:42:07;;;;;;;8.60;5.00;;;5.50;99.90;;;;;;4949825;29;20235;-85
2022/03/08 09:44:34;;;;;;;6.57;5.53;;;5.50;99.90;;;;;;4954578;28;20218;-85
2022/03/08 09:47:01;;;;;;;6.15;4.60;;;5.50;99.90;;;;;;4963659;28;20191;-84
2022/03/08 09:49:33;;;;;;;7.65;5.95;;;5.60;99.90;;;;;;4975915;23;20241;-85
2022/03/08 09:52:00;;;;;;;4.75;4.35;;;;;;;;;;4951224;29;20229;-85
2022/03/08 09:54:27;;;;;;;4.70;4.10;;;5.80;99.90;;;;;;4958591;28;20191;-85
2022/03/08 09:56:54;;;;;;;7.50;4.30;;;;;;;;;;4963563;28;20209;-86
2022/03/08 09:59:22;;;;;;;10.98;6.07;;;;;;;;;;4960231;28;20223;-86
2022/03/08 10:01:50;;;;;;;5.45;4.20;;;;;;;;;;4960989;28;20219;-86
2022/03/08 10:04:19;;;;;;;5.18;4.20;;;;;;;;;;4958219;29;20219;-86
2022/03/08 10:06:50;;;;;;;4.13;3.83;;;5.90;1.00;;;;;;4959026;29;20224;-85
2022/03/08 10:09:18;;;;;;;4.90;4.30;;;6.40;57.20;;;;;;4956566;29;20247;-85
2022/03/08 10:11:45;;;;;;;6.03;4.65;;;6.20;99.90;;;;;;4953394;29;20207;-84
2022/03/08 10:14:29;;;;;;;5.82;4.25;;;6.40;92.70;;;;;;4956797;29;20203;-85
2022/03/08 10:16:57;;;;;;;5.40;4.35;;;6.50;1.00;;;;;;4954941;29;20191;-84
2022/03/08 10:19:28;;;;;;;5.03;4.53;;;6.30;1.00;;;;;;4955812;29;20293;-85
2022/03/08 10:21:58;;;;;;;7.40;4.70;;;6.40;9.20;;;;;;4955293;29;20194;-85
2022/03/08 10:24:28;;;;;;;16.33;6.38;;;6.40;9.30;;;;;;4957670;29;20216;-85
2022/03/08 10:26:58;;;;;;;7.15;6.55;;;6.60;99.90;;;;;;4954343;29;20299;-84
2022/03/08 10:29:28;;;;;;;6.53;4.15;;;6.50;1.00;;;;;;4955976;29;20217;-85
2022/03/08 10:32:06;;;;;;;4.88;4.47;;;6.60;14.00;;;;;;4958082;29;20230;-85
2022/03/08 10:34:34;;;;;;;9.02;4.82;;;;;;;;;;4960388;29;20199;-85
2022/03/08 10:37:08;;;;;;;7.32;3.95;;;6.50;99.90;;;;;;4955375;29;20215;-85
2022/03/08 10:39:35;;;;;;;5.90;3.63;;;6.70;99.90;;;;;;4954956;29;20274;-84
2022/03/08 10:42:03;;;;;;;4.15;3.67;;;6.60;1.00;;;;;;4956342;29;20230;-85
2022/03/08 10:44:43;;;;;;;6.32;3.80;;;6.80;99.90;;;;;;4955441;29;20294;-85
2022/03/08 10:47:15;;;;;;;5.43;4.28;;;8.40;1.00;;;;;;4957803;29;20236;-84
2022/03/08 10:49:51;;;;;;;4.70;3.67;;;6.70;99.90;;;;;;4958975;29;20254;-83
2022/03/08 10:52:27;;;;;;;8.20;3.45;;;7.00;99.90;;;;;;4961773;28;20194;-84
2022/03/08 10:54:54;;;;;;;4.30;2.95;;;7.20;99.90;;;;;;4959287;28;20222;-84
2022/03/08 10:57:25;;;;;;;5.30;3.17;;;7.20;99.90;;;;;;4957262;29;20207;-84
2022/03/08 10:59:57;;;;;;;3.42;3.13;;;5.60;99.90;;;;;;4957318;29;20197;-85
2022/03/08 11:02:25;;;;;;;4.65;3.38;;;7.20;99.90;;;;;;4955586;29;20211;-83
2022/03/08 11:05:11;;;;;;;4.13;2.97;;;7.20;99.90;;;;;;4957378;29;20254;-84
2022/03/08 11:07:39;;;;;;;4.85;3.35;;;7.30;99.90;;;;;;4956393;29;20250;-84
2022/03/08 11:10:09;;;;;;;5.50;3.25;;;7.30;99.90;;;;;;4955438;29;20213;-85
2022/03/08 11:12:39;;;;;;;2.42;2.30;;;7.50;99.90;;;;;;4954148;29;20221;-84
2022/03/08 11:15:08;;;;;;;4.50;2.47;;;7.20;99.90;;;;;;4956179;29;20582;-85
2022/03/08 11:17:42;;;;;;;2.20;2.10;;;7.10;99.90;;;;;;4955341;29;20211;-84
2022/03/08 11:20:15;;;;;;;4.80;2.45;;;7.50;99.90;;;;;;4958474;29;20266;-85
2022/03/08 11:22:47;;;;;;;3.95;2.60;;;7.60;1.00;;;;;;4958945;29;20211;-85
2022/03/08 11:25:16;;;;;;;3.90;3.22;;;7.70;2.60;;;;;;4954934;29;20207;-85
2022/03/08 11:27:45;;;;;;;4.50;2.65;;;7.60;99.90;;;;;;4955142;29;20251;-85
2022/03/08 11:30:14;;;;;;;2.78;2.53;;;7.60;99.90;;;;;;4950756;29;20203;-85
2022/03/08 11:32:47;;;;;;;2.33;2.10;;;7.90;99.90;;;;;;4951764;29;20207;-85
2022/03/08 11:35:19;;;;;;;1.98;1.88;;;7.60;99.90;;;;;;4952743;29;20191;-85
2022/03/08 11:37:50;;;;;;;2.00;1.85;;;7.60;99.90;;;;;;4950102;29;20235;-84
2022/03/08 11:40:20;;;;;;;3.03;1.80;;;7.30;99.90;;;;;;4947834;29;20207;-84
2022/03/08 11:42:51;;;;;;;3.47;2.20;;;7.60;99.90;;;;;;4949119;29;20210;-85
2022/03/08 11:45:20;;;;;;;1.75;1.65;;;7.70;99.90;;;;;;4949811;29;20222;-84
2022/03/08 11:47:53;;;;;;;4.70;2.88;;;7.80;99.90;;;;;;4950917;29;20231;-84
2022/03/08 11:50:24;;;;;;;1.70;1.58;;;7.70;99.90;;;;;;4954047;29;20214;-85
2022/03/08 11:53:05;;;;;;;3.42;2.60;;;8.00;99.90;;;;;;4960654;28;20175;-85
2022/03/08 11:55:33;;;;;;;2.40;2.10;;;7.90;99.90;;;;;;4961047;28;20176;-84
2022/03/08 11:58:01;;;;;;;2.60;2.40;;;7.90;99.90;;;;;;4956699;28;20441;-85
2022/03/08 12:00:36;;;;;;;3.87;2.47;;;8.00;99.90;;;;;;4952659;29;20202;-84
2022/03/08 12:03:04;;;;;;;3.43;2.80;;;8.00;99.90;;;;;;4953720;29;20477;-85
2022/03/08 12:05:49;;;;;;;3.20;2.47;;;8.00;99.90;;;;;;4950114;29;20524;-85
2022/03/08 12:08:43;;;;;;;2.37;2.17;;;8.10;99.90;;;;;;4952218;29;20474;-85
2022/03/08 12:11:29;;;;;;;5.43;2.57;;;8.10;99.90;;;;;;4950338;29;20796;-85
2022/03/08 12:14:02;;;;;;;2.80;2.60;;;8.00;99.90;;;;;;4950562;29;20431;-85
2022/03/08 12:16:29;;;;;;;3.10;2.90;;;8.10;99.90;;;;;;4950496;29;20417;-86
2022/03/08 12:18:58;;;;;;;4.07;2.60;;;8.30;99.90;;;;;;4947096;29;20504;-85
2022/03/08 12:21:40;;;;;;;3.33;3.10;;;8.40;99.90;;;;;;4946203;29;20226;-86
2022/03/08 12:24:17;;;;;;;5.00;3.33;;;8.50;99.90;;;;;;4945830;29;20450;-85
2022/03/08 12:27:00;;;;;;;4.40;4.00;;;8.50;99.90;;;;;;4947084;29;20197;-85
2022/03/08 12:29:30;;;;;;;2.97;2.77;;;8.60;99.90;;;;;;4959620;29;20483;-85
2022/03/08 12:32:10;;;;;;;2.87;2.50;;;8.50;99.90;;;;;;4950819;29;20491;-85
2022/03/08 12:34:39;;;;;;;3.30;2.80;;;8.50;99.90;;;;;;4948121;29;21002;-85
2022/03/08 12:37:08;;;;;;;3.53;3.23;;;8.50;1.00;;;;;;4947930;29;20458;-86
2022/03/08 12:39:48;;;;;;;3.47;3.17;;;8.60;99.90;;;;;;4948796;29;20463;-84
2022/03/08 12:42:30;;;;;;;4.33;3.00;;;8.70;99.90;;;;;;4946643;29;20755;-85
2022/03/08 12:45:00;;;;;;;3.30;3.00;;;8.80;99.90;;;;;;4943043;29;20486;-85
2022/03/08 12:47:29;;;;;;;2.90;2.70;;;8.70;99.90;;;;;;4946111;29;20455;-85
2022/03/08 12:49:59;;;;;;;3.13;2.57;;;8.90;99.90;;;;;;4944189;29;20414;-86
2022/03/08 12:52:28;;;;;;;3.27;2.97;;;8.90;99.90;;;;;;4943911;29;20409;-87
2022/03/08 12:54:58;;;;;;;2.90;2.60;;;8.90;99.90;;;;;;4948195;29;20447;-85
2022/03/08 12:57:25;;;;;;;2.80;2.60;;;9.00;80.80;;;;;;4947091;29;20426;-85
2022/03/08 12:59:54;;;;;;;2.90;2.60;;;8.90;1.00;;;;;;4945475;29;20480;-85